sensor_id;sensor_type;location;lat;lon;timestamp;temperature;humidity
31837;DHT22;18401;49.344;6.240;2024-01-30T00:02:22;2.10;99.90
31837;DHT22;18401;49.344;6.240;2024-01-30T00:04:47;2.10;99.90
31837;DHT22;18401;49.344;6.240;2024-01-30T00:07:13;2.00;99.90
31837;DHT22;18401;49.344;6.240;2024-01-30T00:09:39;1.80;99.90
31837;DHT22;18401;49.344;6.240;2024-01-30T00:12:06;1.60;99.90
31837;DHT22;18401;49.344;6.240;2024-01-30T00:14:31;1.70;99.90
31837;DHT22;18401;49.344;6.240;2024-01-30T00:16:57;1.50;99.90
31837;DHT22;18401;49.344;6.240;2024-01-30T00:19:22;1.50;99.90
31837;DHT22;18401;49.344;6.240;2024-01-30T00:21:48;1.40;99.90
31837;DHT22;18401;49.344;6.240;2024-01-30T00:24:14;1.40;99.90
31837;DHT22;18401;49.344;6.240;2024-01-30T00:26:39;1.40;99.90
31837;DHT22;18401;49.344;6.240;2024-01-30T00:29:05;1.20;99.90
31837;DHT22;18401;49.344;6.240;2024-01-30T00:31:31;1.20;99.90
31837;DHT22;18401;49.344;6.240;2024-01-30T00:33:57;1.20;99.90
31837;DHT22;18401;49.344;6.240;2024-01-30T00:36:22;1.10;99.90
31837;DHT22;18401;49.344;6.240;2024-01-30T00:38:48;1.10;99.90
31837;DHT22;18401;49.344;6.240;2024-01-30T00:41:14;1.10;99.90
31837;DHT22;18401;49.344;6.240;2024-01-30T00:43:40;1.00;99.90
31837;DHT22;18401;49.344;6.240;2024-01-30T00:46:05;1.00;99.90
31837;DHT22;18401;49.344;6.240;2024-01-30T00:48:31;1.00;99.90
31837;DHT22;18401;49.344;6.240;2024-01-30T00:50:57;1.10;99.90
31837;DHT22;18401;49.344;6.240;2024-01-30T00:53:22;1.20;99.90
31837;DHT22;18401;49.344;6.240;2024-01-30T00:55:48;1.40;99.90
31837;DHT22;18401;49.344;6.240;2024-01-30T00:58:14;1.50;99.90
31837;DHT22;18401;49.344;6.240;2024-01-30T01:00:40;1.60;99.90
31837;DHT22;18401;49.344;6.240;2024-01-30T01:03:05;1.90;99.90
31837;DHT22;18401;49.344;6.240;2024-01-30T01:05:31;1.80;99.90
31837;DHT22;18401;49.344;6.240;2024-01-30T01:07:57;1.90;99.90
31837;DHT22;18401;49.344;6.240;2024-01-30T01:10:22;1.80;99.90
31837;DHT22;18401;49.344;6.240;2024-01-30T01:12:48;1.80;99.90
31837;DHT22;18401;49.344;6.240;2024-01-30T01:15:14;1.80;99.90
31837;DHT22;18401;49.344;6.240;2024-01-30T01:17:40;1.70;99.90
31837;DHT22;18401;49.344;6.240;2024-01-30T01:20:07;1.40;99.90
31837;DHT22;18401;49.344;6.240;2024-01-30T01:22:33;1.30;99.90
31837;DHT22;18401;49.344;6.240;2024-01-30T01:25:00;1.20;99.90
31837;DHT22;18401;49.344;6.240;2024-01-30T01:27:26;1.00;99.90
31837;DHT22;18401;49.344;6.240;2024-01-30T01:29:52;0.90;99.90
31837;DHT22;18401;49.344;6.240;2024-01-30T01:32:18;0.80;99.90
31837;DHT22;18401;49.344;6.240;2024-01-30T01:34:44;0.80;99.90
31837;DHT22;18401;49.344;6.240;2024-01-30T01:37:09;1.00;99.90
31837;DHT22;18401;49.344;6.240;2024-01-30T01:39:35;1.20;99.90
31837;DHT22;18401;49.344;6.240;2024-01-30T01:42:01;1.20;99.90
31837;DHT22;18401;49.344;6.240;2024-01-30T01:44:27;1.30;99.90
31837;DHT22;18401;49.344;6.240;2024-01-30T01:46:54;1.40;99.90
31837;DHT22;18401;49.344;6.240;2024-01-30T01:49:20;1.30;99.90
31837;DHT22;18401;49.344;6.240;2024-01-30T01:51:47;1.60;99.90
31837;DHT22;18401;49.344;6.240;2024-01-30T01:54:14;1.60;99.90
31837;DHT22;18401;49.344;6.240;2024-01-30T01:56:42;1.40;99.90
31837;DHT22;18401;49.344;6.240;2024-01-30T01:59:08;1.10;99.90
31837;DHT22;18401;49.344;6.240;2024-01-30T02:01:37;0.90;99.90
31837;DHT22;18401;49.344;6.240;2024-01-30T02:04:04;0.80;99.90
31837;DHT22;18401;49.344;6.240;2024-01-30T02:06:31;0.80;99.90
31837;DHT22;18401;49.344;6.240;2024-01-30T02:08:57;0.80;99.90
31837;DHT22;18401;49.344;6.240;2024-01-30T02:11:23;0.80;99.90
31837;DHT22;18401;49.344;6.240;2024-01-30T02:13:49;0.70;99.90
31837;DHT22;18401;49.344;6.240;2024-01-30T02:16:15;0.60;99.90
31837;DHT22;18401;49.344;6.240;2024-01-30T02:18:42;0.50;99.90
31837;DHT22;18401;49.344;6.240;2024-01-30T02:21:11;0.50;99.90
31837;DHT22;18401;49.344;6.240;2024-01-30T02:23:38;0.50;99.90
31837;DHT22;18401;49.344;6.240;2024-01-30T02:26:05;0.50;99.90
31837;DHT22;18401;49.344;6.240;2024-01-30T02:28:30;0.60;99.90
31837;DHT22;18401;49.344;6.240;2024-01-30T02:30:56;0.60;99.90
31837;DHT22;18401;49.344;6.240;2024-01-30T02:33:21;0.80;99.90
31837;DHT22;18401;49.344;6.240;2024-01-30T02:35:48;1.20;99.90
31837;DHT22;18401;49.344;6.240;2024-01-30T02:38:14;1.30;99.90
31837;DHT22;18401;49.344;6.240;2024-01-30T02:40:40;1.30;99.90
31837;DHT22;18401;49.344;6.240;2024-01-30T02:43:06;1.30;99.90
31837;DHT22;18401;49.344;6.240;2024-01-30T02:45:31;1.30;99.90
31837;DHT22;18401;49.344;6.240;2024-01-30T02:47:57;1.30;99.90
31837;DHT22;18401;49.344;6.240;2024-01-30T02:50:23;1.40;99.90
31837;DHT22;18401;49.344;6.240;2024-01-30T02:52:48;1.40;99.90
31837;DHT22;18401;49.344;6.240;2024-01-30T02:55:14;1.40;99.90
31837;DHT22;18401;49.344;6.240;2024-01-30T02:57:43;1.40;99.90
31837;DHT22;18401;49.344;6.240;2024-01-30T03:00:09;1.50;99.90
31837;DHT22;18401;49.344;6.240;2024-01-30T03:02:35;1.50;99.90
31837;DHT22;18401;49.344;6.240;2024-01-30T03:05:01;1.50;99.90
31837;DHT22;18401;49.344;6.240;2024-01-30T03:07:27;1.50;99.90
31837;DHT22;18401;49.344;6.240;2024-01-30T03:09:52;1.50;99.90
31837;DHT22;18401;49.344;6.240;2024-01-30T03:12:21;1.40;99.90
31837;DHT22;18401;49.344;6.240;2024-01-30T03:14:46;1.40;99.90
31837;DHT22;18401;49.344;6.240;2024-01-30T03:17:12;1.20;99.90
31837;DHT22;18401;49.344;6.240;2024-01-30T03:19:38;1.00;99.90
31837;DHT22;18401;49.344;6.240;2024-01-30T03:22:03;0.90;99.90
31837;DHT22;18401;49.344;6.240;2024-01-30T03:24:29;0.90;99.90
31837;DHT22;18401;49.344;6.240;2024-01-30T03:26:54;0.90;99.90
31837;DHT22;18401;49.344;6.240;2024-01-30T03:29:20;0.90;99.90
31837;DHT22;18401;49.344;6.240;2024-01-30T03:31:46;0.90;99.90
31837;DHT22;18401;49.344;6.240;2024-01-30T03:34:11;0.80;99.90
31837;DHT22;18401;49.344;6.240;2024-01-30T03:36:37;1.00;99.90
31837;DHT22;18401;49.344;6.240;2024-01-30T03:39:03;1.00;99.90
31837;DHT22;18401;49.344;6.240;2024-01-30T03:41:28;1.10;99.90
31837;DHT22;18401;49.344;6.240;2024-01-30T03:43:54;1.10;99.90
31837;DHT22;18401;49.344;6.240;2024-01-30T03:46:19;1.10;99.90
31837;DHT22;18401;49.344;6.240;2024-01-30T03:48:45;0.90;99.90
31837;DHT22;18401;49.344;6.240;2024-01-30T03:51:11;0.70;99.90
31837;DHT22;18401;49.344;6.240;2024-01-30T03:53:44;0.60;99.90
31837;DHT22;18401;49.344;6.240;2024-01-30T03:56:11;0.60;99.90
31837;DHT22;18401;49.344;6.240;2024-01-30T03:58:39;0.60;99.90
31837;DHT22;18401;49.344;6.240;2024-01-30T04:01:05;0.50;99.90
31837;DHT22;18401;49.344;6.240;2024-01-30T04:03:30;0.50;99.90
31837;DHT22;18401;49.344;6.240;2024-01-30T04:05:56;0.70;99.90
31837;DHT22;18401;49.344;6.240;2024-01-30T04:08:22;0.70;99.90
31837;DHT22;18401;49.344;6.240;2024-01-30T04:10:47;0.60;99.90
31837;DHT22;18401;49.344;6.240;2024-01-30T04:13:13;0.60;99.90
31837;DHT22;18401;49.344;6.240;2024-01-30T04:15:39;0.60;99.90
31837;DHT22;18401;49.344;6.240;2024-01-30T04:18:05;0.60;99.90
31837;DHT22;18401;49.344;6.240;2024-01-30T04:20:31;0.60;99.90
31837;DHT22;18401;49.344;6.240;2024-01-30T04:22:56;0.70;99.90
31837;DHT22;18401;49.344;6.240;2024-01-30T04:25:22;0.70;99.90
31837;DHT22;18401;49.344;6.240;2024-01-30T04:27:48;0.80;99.90
31837;DHT22;18401;49.344;6.240;2024-01-30T04:30:14;0.90;99.90
31837;DHT22;18401;49.344;6.240;2024-01-30T04:32:40;1.00;99.90
31837;DHT22;18401;49.344;6.240;2024-01-30T04:35:05;0.90;99.90
31837;DHT22;18401;49.344;6.240;2024-01-30T04:37:31;0.90;99.90
31837;DHT22;18401;49.344;6.240;2024-01-30T04:39:57;0.90;99.90
31837;DHT22;18401;49.344;6.240;2024-01-30T04:42:23;0.80;99.90
31837;DHT22;18401;49.344;6.240;2024-01-30T04:44:49;0.70;99.90
31837;DHT22;18401;49.344;6.240;2024-01-30T04:47:14;0.70;99.90
31837;DHT22;18401;49.344;6.240;2024-01-30T04:49:40;0.60;99.90
31837;DHT22;18401;49.344;6.240;2024-01-30T04:52:06;0.50;99.90
31837;DHT22;18401;49.344;6.240;2024-01-30T04:54:33;0.40;99.90
31837;DHT22;18401;49.344;6.240;2024-01-30T04:56:58;0.30;99.90
31837;DHT22;18401;49.344;6.240;2024-01-30T04:59:24;0.30;99.90
31837;DHT22;18401;49.344;6.240;2024-01-30T05:01:50;0.30;99.90
31837;DHT22;18401;49.344;6.240;2024-01-30T05:04:15;0.40;99.90
31837;DHT22;18401;49.344;6.240;2024-01-30T05:06:41;0.20;99.90
31837;DHT22;18401;49.344;6.240;2024-01-30T05:09:07;0.20;99.90
31837;DHT22;18401;49.344;6.240;2024-01-30T05:11:40;0.30;99.90
31837;DHT22;18401;49.344;6.240;2024-01-30T05:14:06;0.40;99.90
31837;DHT22;18401;49.344;6.240;2024-01-30T05:16:32;0.40;99.90
31837;DHT22;18401;49.344;6.240;2024-01-30T05:18:58;0.30;99.90
31837;DHT22;18401;49.344;6.240;2024-01-30T05:21:24;0.30;99.90
31837;DHT22;18401;49.344;6.240;2024-01-30T05:23:50;0.30;99.90
31837;DHT22;18401;49.344;6.240;2024-01-30T05:26:15;0.30;99.90
31837;DHT22;18401;49.344;6.240;2024-01-30T05:28:41;0.30;99.90
31837;DHT22;18401;49.344;6.240;2024-01-30T05:31:09;0.50;99.90
31837;DHT22;18401;49.344;6.240;2024-01-30T05:33:35;0.60;99.90
31837;DHT22;18401;49.344;6.240;2024-01-30T05:36:01;0.60;99.90
31837;DHT22;18401;49.344;6.240;2024-01-30T05:38:26;0.60;99.90
31837;DHT22;18401;49.344;6.240;2024-01-30T05:40:52;0.70;99.90
31837;DHT22;18401;49.344;6.240;2024-01-30T05:43:18;0.80;99.90
31837;DHT22;18401;49.344;6.240;2024-01-30T05:45:44;0.80;99.90
31837;DHT22;18401;49.344;6.240;2024-01-30T05:48:10;0.90;99.90
31837;DHT22;18401;49.344;6.240;2024-01-30T05:50:35;1.00;99.90
31837;DHT22;18401;49.344;6.240;2024-01-30T05:53:01;1.00;99.90
31837;DHT22;18401;49.344;6.240;2024-01-30T05:55:26;0.90;99.90
31837;DHT22;18401;49.344;6.240;2024-01-30T05:57:52;0.80;99.90
31837;DHT22;18401;49.344;6.240;2024-01-30T06:00:18;0.80;99.90
31837;DHT22;18401;49.344;6.240;2024-01-30T06:02:44;0.80;99.90
31837;DHT22;18401;49.344;6.240;2024-01-30T06:05:09;0.70;99.90
31837;DHT22;18401;49.344;6.240;2024-01-30T06:07:35;0.80;99.90
31837;DHT22;18401;49.344;6.240;2024-01-30T06:10:01;0.80;99.90
31837;DHT22;18401;49.344;6.240;2024-01-30T06:12:27;0.70;99.90
31837;DHT22;18401;49.344;6.240;2024-01-30T06:14:53;0.70;99.90
31837;DHT22;18401;49.344;6.240;2024-01-30T06:17:22;0.90;99.90
31837;DHT22;18401;49.344;6.240;2024-01-30T06:19:48;1.00;99.90
31837;DHT22;18401;49.344;6.240;2024-01-30T06:22:13;1.10;99.90
31837;DHT22;18401;49.344;6.240;2024-01-30T06:24:39;1.10;99.90
31837;DHT22;18401;49.344;6.240;2024-01-30T06:27:04;1.30;99.90
31837;DHT22;18401;49.344;6.240;2024-01-30T06:29:30;1.30;99.90
31837;DHT22;18401;49.344;6.240;2024-01-30T06:31:56;1.30;99.90
31837;DHT22;18401;49.344;6.240;2024-01-30T06:34:22;1.20;99.90
31837;DHT22;18401;49.344;6.240;2024-01-30T06:36:48;1.20;99.90
31837;DHT22;18401;49.344;6.240;2024-01-30T06:39:14;1.20;99.90
31837;DHT22;18401;49.344;6.240;2024-01-30T06:41:39;1.10;99.90
31837;DHT22;18401;49.344;6.240;2024-01-30T06:44:05;1.10;99.90
31837;DHT22;18401;49.344;6.240;2024-01-30T06:46:32;1.10;99.90
31837;DHT22;18401;49.344;6.240;2024-01-30T06:48:58;1.10;99.90
31837;DHT22;18401;49.344;6.240;2024-01-30T06:51:24;1.20;99.90
31837;DHT22;18401;49.344;6.240;2024-01-30T06:53:49;1.30;99.90
31837;DHT22;18401;49.344;6.240;2024-01-30T06:56:16;1.30;99.90
31837;DHT22;18401;49.344;6.240;2024-01-30T06:58:49;1.30;99.90
31837;DHT22;18401;49.344;6.240;2024-01-30T07:01:15;1.30;99.90
31837;DHT22;18401;49.344;6.240;2024-01-30T07:03:41;1.30;99.90
31837;DHT22;18401;49.344;6.240;2024-01-30T07:06:07;1.20;99.90
31837;DHT22;18401;49.344;6.240;2024-01-30T07:08:33;1.20;99.90
31837;DHT22;18401;49.344;6.240;2024-01-30T07:10:59;1.10;99.90
31837;DHT22;18401;49.344;6.240;2024-01-30T07:13:25;1.00;99.90
31837;DHT22;18401;49.344;6.240;2024-01-30T07:15:50;1.00;99.90
31837;DHT22;18401;49.344;6.240;2024-01-30T07:18:16;0.90;99.90
31837;DHT22;18401;49.344;6.240;2024-01-30T07:20:42;1.10;99.90
31837;DHT22;18401;49.344;6.240;2024-01-30T07:23:12;1.10;99.90
31837;DHT22;18401;49.344;6.240;2024-01-30T07:25:40;1.10;99.90
31837;DHT22;18401;49.344;6.240;2024-01-30T07:28:10;1.10;99.90
31837;DHT22;18401;49.344;6.240;2024-01-30T07:30:36;1.20;99.90
31837;DHT22;18401;49.344;6.240;2024-01-30T07:33:02;1.20;99.90
31837;DHT22;18401;49.344;6.240;2024-01-30T07:35:27;1.30;99.90
31837;DHT22;18401;49.344;6.240;2024-01-30T07:37:53;1.40;99.90
31837;DHT22;18401;49.344;6.240;2024-01-30T07:40:19;1.50;99.90
31837;DHT22;18401;49.344;6.240;2024-01-30T07:42:45;1.50;99.90
31837;DHT22;18401;49.344;6.240;2024-01-30T07:45:10;1.50;99.90
31837;DHT22;18401;49.344;6.240;2024-01-30T07:47:36;1.70;99.90
31837;DHT22;18401;49.344;6.240;2024-01-30T07:50:01;1.70;99.90
31837;DHT22;18401;49.344;6.240;2024-01-30T07:52:27;1.70;99.90
31837;DHT22;18401;49.344;6.240;2024-01-30T07:54:53;1.80;99.90
31837;DHT22;18401;49.344;6.240;2024-01-30T07:57:19;1.90;99.90
31837;DHT22;18401;49.344;6.240;2024-01-30T07:59:44;2.00;99.90
31837;DHT22;18401;49.344;6.240;2024-01-30T08:02:12;2.00;99.90
31837;DHT22;18401;49.344;6.240;2024-01-30T08:04:46;2.10;99.90
31837;DHT22;18401;49.344;6.240;2024-01-30T08:07:14;2.20;99.90
31837;DHT22;18401;49.344;6.240;2024-01-30T08:09:40;2.30;99.90
31837;DHT22;18401;49.344;6.240;2024-01-30T08:12:05;2.40;99.90
31837;DHT22;18401;49.344;6.240;2024-01-30T08:14:31;2.40;99.90
31837;DHT22;18401;49.344;6.240;2024-01-30T08:16:57;2.40;99.90
31837;DHT22;18401;49.344;6.240;2024-01-30T08:19:23;2.60;99.90
31837;DHT22;18401;49.344;6.240;2024-01-30T08:21:49;2.60;99.90
31837;DHT22;18401;49.344;6.240;2024-01-30T08:24:15;2.60;99.90
31837;DHT22;18401;49.344;6.240;2024-01-30T08:26:40;2.40;99.90
31837;DHT22;18401;49.344;6.240;2024-01-30T08:29:06;2.50;99.90
31837;DHT22;18401;49.344;6.240;2024-01-30T08:31:32;2.40;99.90
31837;DHT22;18401;49.344;6.240;2024-01-30T08:33:58;2.40;99.90
31837;DHT22;18401;49.344;6.240;2024-01-30T08:36:24;2.40;99.90
31837;DHT22;18401;49.344;6.240;2024-01-30T08:38:52;2.50;99.90
31837;DHT22;18401;49.344;6.240;2024-01-30T08:41:17;2.60;99.90
31837;DHT22;18401;49.344;6.240;2024-01-30T08:43:43;2.70;99.90
31837;DHT22;18401;49.344;6.240;2024-01-30T08:46:10;2.70;99.90
31837;DHT22;18401;49.344;6.240;2024-01-30T08:48:36;2.70;99.90
31837;DHT22;18401;49.344;6.240;2024-01-30T08:51:02;2.80;99.90
31837;DHT22;18401;49.344;6.240;2024-01-30T08:53:27;2.90;99.90
31837;DHT22;18401;49.344;6.240;2024-01-30T08:55:53;3.00;99.90
31837;DHT22;18401;49.344;6.240;2024-01-30T08:58:19;3.10;99.90
31837;DHT22;18401;49.344;6.240;2024-01-30T09:00:45;3.20;99.90
31837;DHT22;18401;49.344;6.240;2024-01-30T09:03:10;3.40;99.90
31837;DHT22;18401;49.344;6.240;2024-01-30T09:05:36;3.30;99.90
31837;DHT22;18401;49.344;6.240;2024-01-30T09:08:02;3.40;99.90
31837;DHT22;18401;49.344;6.240;2024-01-30T09:10:27;3.60;99.90
31837;DHT22;18401;49.344;6.240;2024-01-30T09:12:53;3.80;99.90
31837;DHT22;18401;49.344;6.240;2024-01-30T09:15:18;4.00;99.90
31837;DHT22;18401;49.344;6.240;2024-01-30T09:17:44;4.30;99.90
31837;DHT22;18401;49.344;6.240;2024-01-30T09:20:10;4.80;99.90
31837;DHT22;18401;49.344;6.240;2024-01-30T09:22:36;5.00;99.90
31837;DHT22;18401;49.344;6.240;2024-01-30T09:25:02;5.20;99.90
31837;DHT22;18401;49.344;6.240;2024-01-30T09:27:27;5.20;99.90
31837;DHT22;18401;49.344;6.240;2024-01-30T09:29:53;5.20;99.90
31837;DHT22;18401;49.344;6.240;2024-01-30T09:32:19;5.20;99.90
31837;DHT22;18401;49.344;6.240;2024-01-30T09:34:45;5.00;99.90
31837;DHT22;18401;49.344;6.240;2024-01-30T09:37:11;5.90;99.90
31837;DHT22;18401;49.344;6.240;2024-01-30T09:39:36;6.70;1.00
31837;DHT22;18401;49.344;6.240;2024-01-30T09:42:25;7.00;99.90
31837;DHT22;18401;49.344;6.240;2024-01-30T09:44:51;7.20;99.90
31837;DHT22;18401;49.344;6.240;2024-01-30T09:47:18;7.50;85.70
31837;DHT22;18401;49.344;6.240;2024-01-30T09:49:44;7.60;15.40
31837;DHT22;18401;49.344;6.240;2024-01-30T09:52:11;7.60;1.00
31837;DHT22;18401;49.344;6.240;2024-01-30T09:54:38;7.60;1.00
31837;DHT22;18401;49.344;6.240;2024-01-30T09:57:04;7.70;1.00
31837;DHT22;18401;49.344;6.240;2024-01-30T09:59:30;7.80;99.90
31837;DHT22;18401;49.344;6.240;2024-01-30T10:01:57;7.80;99.90
31837;DHT22;18401;49.344;6.240;2024-01-30T10:04:22;7.90;99.90
31837;DHT22;18401;49.344;6.240;2024-01-30T10:06:48;8.00;99.90
31837;DHT22;18401;49.344;6.240;2024-01-30T10:09:14;7.90;99.90
31837;DHT22;18401;49.344;6.240;2024-01-30T10:11:40;8.00;99.90
31837;DHT22;18401;49.344;6.240;2024-01-30T10:14:06;8.00;99.90
31837;DHT22;18401;49.344;6.240;2024-01-30T10:16:31;8.00;99.90
31837;DHT22;18401;49.344;6.240;2024-01-30T10:18:57;8.00;99.90
31837;DHT22;18401;49.344;6.240;2024-01-30T10:21:23;8.00;99.90
31837;DHT22;18401;49.344;6.240;2024-01-30T10:23:49;8.00;99.90
31837;DHT22;18401;49.344;6.240;2024-01-30T10:26:16;8.10;99.90
31837;DHT22;18401;49.344;6.240;2024-01-30T10:28:43;8.10;99.90
31837;DHT22;18401;49.344;6.240;2024-01-30T10:31:08;8.10;95.40
31837;DHT22;18401;49.344;6.240;2024-01-30T10:33:34;8.10;99.90
31837;DHT22;18401;49.344;6.240;2024-01-30T10:36:04;8.20;91.00
31837;DHT22;18401;49.344;6.240;2024-01-30T10:38:32;8.20;80.60
31837;DHT22;18401;49.344;6.240;2024-01-30T10:41:01;8.20;96.20
31837;DHT22;18401;49.344;6.240;2024-01-30T10:43:40;8.30;99.90
31837;DHT22;18401;49.344;6.240;2024-01-30T10:46:11;8.20;99.90
31837;DHT22;18401;49.344;6.240;2024-01-30T10:48:58;8.30;99.90
31837;DHT22;18401;49.344;6.240;2024-01-30T10:51:27;8.20;99.90
31837;DHT22;18401;49.344;6.240;2024-01-30T10:53:53;8.30;99.90
31837;DHT22;18401;49.344;6.240;2024-01-30T10:56:21;8.30;99.90
31837;DHT22;18401;49.344;6.240;2024-01-30T10:58:50;8.40;99.90
31837;DHT22;18401;49.344;6.240;2024-01-30T11:01:23;8.40;88.80
31837;DHT22;18401;49.344;6.240;2024-01-30T11:03:53;8.50;47.10
31837;DHT22;18401;49.344;6.240;2024-01-30T11:06:23;8.60;90.00
31837;DHT22;18401;49.344;6.240;2024-01-30T11:09:06;8.60;54.80
31837;DHT22;18401;49.344;6.240;2024-01-30T11:11:52;8.70;21.10
31837;DHT22;18401;49.344;6.240;2024-01-30T11:14:23;8.80;58.50
31837;DHT22;18401;49.344;6.240;2024-01-30T11:16:50;8.80;11.10
31837;DHT22;18401;49.344;6.240;2024-01-30T11:19:22;8.80;19.50
31837;DHT22;18401;49.344;6.240;2024-01-30T11:21:50;8.80;1.00
31837;DHT22;18401;49.344;6.240;2024-01-30T11:24:20;8.80;2.40
31837;DHT22;18401;49.344;6.240;2024-01-30T11:26:48;8.80;26.40
31837;DHT22;18401;49.344;6.240;2024-01-30T11:29:17;8.80;21.50
31837;DHT22;18401;49.344;6.240;2024-01-30T11:31:53;8.70;19.60
31837;DHT22;18401;49.344;6.240;2024-01-30T11:34:20;8.80;10.20
31837;DHT22;18401;49.344;6.240;2024-01-30T11:36:55;8.90;6.60
31837;DHT22;18401;49.344;6.240;2024-01-30T11:39:25;8.90;16.50
31837;DHT22;18401;49.344;6.240;2024-01-30T11:41:51;9.00;1.00
31837;DHT22;18401;49.344;6.240;2024-01-30T11:44:21;9.10;1.00
31837;DHT22;18401;49.344;6.240;2024-01-30T11:46:52;9.10;17.60
31837;DHT22;18401;49.344;6.240;2024-01-30T11:49:18;9.10;1.00
31837;DHT22;18401;49.344;6.240;2024-01-30T11:51:45;9.20;1.00
31837;DHT22;18401;49.344;6.240;2024-01-30T11:54:11;9.30;1.00
31837;DHT22;18401;49.344;6.240;2024-01-30T11:56:37;9.30;1.00
31837;DHT22;18401;49.344;6.240;2024-01-30T11:59:04;9.40;1.00
31837;DHT22;18401;49.344;6.240;2024-01-30T12:01:31;9.50;1.00
31837;DHT22;18401;49.344;6.240;2024-01-30T12:03:58;9.50;1.00
31837;DHT22;18401;49.344;6.240;2024-01-30T12:06:24;9.60;99.90
31837;DHT22;18401;49.344;6.240;2024-01-30T12:09:00;9.70;99.90
31837;DHT22;18401;49.344;6.240;2024-01-30T12:11:27;9.70;99.90
31837;DHT22;18401;49.344;6.240;2024-01-30T12:13:53;9.70;99.90
31837;DHT22;18401;49.344;6.240;2024-01-30T12:16:19;9.70;99.90
31837;DHT22;18401;49.344;6.240;2024-01-30T12:18:45;9.70;99.90
31837;DHT22;18401;49.344;6.240;2024-01-30T12:21:11;9.70;99.90
31837;DHT22;18401;49.344;6.240;2024-01-30T12:23:36;9.60;99.90
31837;DHT22;18401;49.344;6.240;2024-01-30T12:26:03;9.70;99.90
31837;DHT22;18401;49.344;6.240;2024-01-30T12:28:32;9.80;99.90
31837;DHT22;18401;49.344;6.240;2024-01-30T12:31:02;9.80;99.90
31837;DHT22;18401;49.344;6.240;2024-01-30T12:33:29;9.70;99.90
31837;DHT22;18401;49.344;6.240;2024-01-30T12:36:01;9.80;99.90
31837;DHT22;18401;49.344;6.240;2024-01-30T12:38:27;9.70;99.90
31837;DHT22;18401;49.344;6.240;2024-01-30T12:40:55;9.70;99.90
31837;DHT22;18401;49.344;6.240;2024-01-30T12:43:22;9.80;99.90
31837;DHT22;18401;49.344;6.240;2024-01-30T12:45:50;9.80;99.90
31837;DHT22;18401;49.344;6.240;2024-01-30T12:48:15;9.90;99.90
31837;DHT22;18401;49.344;6.240;2024-01-30T12:50:41;9.90;99.90
31837;DHT22;18401;49.344;6.240;2024-01-30T12:53:07;10.00;99.90
31837;DHT22;18401;49.344;6.240;2024-01-30T12:55:34;10.00;99.90
31837;DHT22;18401;49.344;6.240;2024-01-30T12:58:00;10.10;99.90
31837;DHT22;18401;49.344;6.240;2024-01-30T13:00:26;10.10;99.90
31837;DHT22;18401;49.344;6.240;2024-01-30T13:02:51;10.20;99.90
31837;DHT22;18401;49.344;6.240;2024-01-30T13:05:17;10.20;99.90
31837;DHT22;18401;49.344;6.240;2024-01-30T13:07:43;10.20;99.90
31837;DHT22;18401;49.344;6.240;2024-01-30T13:10:09;10.20;99.90
31837;DHT22;18401;49.344;6.240;2024-01-30T13:12:34;10.20;99.90
31837;DHT22;18401;49.344;6.240;2024-01-30T13:15:00;10.20;99.90
31837;DHT22;18401;49.344;6.240;2024-01-30T13:17:29;10.30;99.90
31837;DHT22;18401;49.344;6.240;2024-01-30T13:19:55;10.30;99.90
31837;DHT22;18401;49.344;6.240;2024-01-30T13:22:21;10.30;99.90
31837;DHT22;18401;49.344;6.240;2024-01-30T13:24:47;10.40;99.90
31837;DHT22;18401;49.344;6.240;2024-01-30T13:27:13;10.40;99.90
31837;DHT22;18401;49.344;6.240;2024-01-30T13:29:38;10.40;99.90
31837;DHT22;18401;49.344;6.240;2024-01-30T13:32:04;10.50;99.90
31837;DHT22;18401;49.344;6.240;2024-01-30T13:34:30;10.50;99.90
31837;DHT22;18401;49.344;6.240;2024-01-30T13:36:56;10.50;99.90
31837;DHT22;18401;49.344;6.240;2024-01-30T13:39:22;10.60;99.90
31837;DHT22;18401;49.344;6.240;2024-01-30T13:41:48;10.60;99.90
31837;DHT22;18401;49.344;6.240;2024-01-30T13:44:15;10.60;99.90
31837;DHT22;18401;49.344;6.240;2024-01-30T13:46:42;10.60;99.90
31837;DHT22;18401;49.344;6.240;2024-01-30T13:49:07;10.60;99.90
31837;DHT22;18401;49.344;6.240;2024-01-30T13:51:33;10.60;99.90
31837;DHT22;18401;49.344;6.240;2024-01-30T13:53:59;10.70;99.90
31837;DHT22;18401;49.344;6.240;2024-01-30T13:56:24;10.70;99.90
31837;DHT22;18401;49.344;6.240;2024-01-30T13:58:52;10.70;99.90
31837;DHT22;18401;49.344;6.240;2024-01-30T14:01:18;10.70;99.90
31837;DHT22;18401;49.344;6.240;2024-01-30T14:03:44;10.70;99.90
31837;DHT22;18401;49.344;6.240;2024-01-30T14:06:10;10.70;99.90
31837;DHT22;18401;49.344;6.240;2024-01-30T14:08:35;10.70;99.90
31837;DHT22;18401;49.344;6.240;2024-01-30T14:11:01;10.70;99.90
31837;DHT22;18401;49.344;6.240;2024-01-30T14:13:27;10.70;99.90
31837;DHT22;18401;49.344;6.240;2024-01-30T14:15:53;10.70;99.90
31837;DHT22;18401;49.344;6.240;2024-01-30T14:18:18;10.70;99.90
31837;DHT22;18401;49.344;6.240;2024-01-30T14:20:44;10.70;99.90
31837;DHT22;18401;49.344;6.240;2024-01-30T14:23:10;10.80;99.90
31837;DHT22;18401;49.344;6.240;2024-01-30T14:25:35;10.80;99.90
31837;DHT22;18401;49.344;6.240;2024-01-30T14:28:01;10.80;99.90
31837;DHT22;18401;49.344;6.240;2024-01-30T14:30:27;10.90;99.90
31837;DHT22;18401;49.344;6.240;2024-01-30T14:32:52;10.90;99.90
31837;DHT22;18401;49.344;6.240;2024-01-30T14:35:18;10.90;99.90
31837;DHT22;18401;49.344;6.240;2024-01-30T14:37:45;11.00;99.90
31837;DHT22;18401;49.344;6.240;2024-01-30T14:40:10;10.90;99.90
31837;DHT22;18401;49.344;6.240;2024-01-30T14:42:36;11.00;99.90
31837;DHT22;18401;49.344;6.240;2024-01-30T14:45:03;11.10;99.90
31837;DHT22;18401;49.344;6.240;2024-01-30T14:47:29;11.20;99.90
31837;DHT22;18401;49.344;6.240;2024-01-30T14:49:56;11.30;99.90
31837;DHT22;18401;49.344;6.240;2024-01-30T14:52:22;11.30;99.90
31837;DHT22;18401;49.344;6.240;2024-01-30T14:54:48;11.30;99.90
31837;DHT22;18401;49.344;6.240;2024-01-30T14:57:14;11.30;99.90
31837;DHT22;18401;49.344;6.240;2024-01-30T14:59:40;11.30;99.90
31837;DHT22;18401;49.344;6.240;2024-01-30T15:02:06;11.30;99.90
31837;DHT22;18401;49.344;6.240;2024-01-30T15:04:31;11.30;99.90
31837;DHT22;18401;49.344;6.240;2024-01-30T15:06:57;11.30;99.90
31837;DHT22;18401;49.344;6.240;2024-01-30T15:09:23;11.30;99.90
31837;DHT22;18401;49.344;6.240;2024-01-30T15:11:51;11.10;99.90
31837;DHT22;18401;49.344;6.240;2024-01-30T15:14:17;11.00;99.90
31837;DHT22;18401;49.344;6.240;2024-01-30T15:16:43;10.90;99.90
31837;DHT22;18401;49.344;6.240;2024-01-30T15:19:08;10.80;99.90
31837;DHT22;18401;49.344;6.240;2024-01-30T15:21:34;10.90;99.90
31837;DHT22;18401;49.344;6.240;2024-01-30T15:24:00;10.80;99.90
31837;DHT22;18401;49.344;6.240;2024-01-30T15:26:26;10.80;99.90
31837;DHT22;18401;49.344;6.240;2024-01-30T15:28:51;10.80;99.90
31837;DHT22;18401;49.344;6.240;2024-01-30T15:31:17;10.70;99.90
31837;DHT22;18401;49.344;6.240;2024-01-30T15:33:43;10.60;1.00
31837;DHT22;18401;49.344;6.240;2024-01-30T15:36:09;10.60;1.00
31837;DHT22;18401;49.344;6.240;2024-01-30T15:38:36;10.50;1.00
31837;DHT22;18401;49.344;6.240;2024-01-30T15:41:01;10.60;1.00